Time;durP1;ratioP1;P1;durP2;ratioP2;P2;SDS_P1;SDS_P2;PMS_P1;PMS_P2;Temp;Humidity;BMP_temperature;BMP_pressure;BME280_temperature;BME280_humidity;BME280_pressure;Samples;Min_cycle;Max_cycle;Signal;HPM_P1;HPM_P2
2024/04/11 00:01:19;;;;;;;7.47;4.93;;;;;;;9.02;69.83;100237.44;5431231;26;20382;-77
2024/04/11 00:03:44;;;;;;;9.40;5.68;;;;;;;9.09;70.04;100248.09;5433682;26;20063;-77
2024/04/11 00:06:09;;;;;;;7.35;5.30;;;;;;;9.03;70.04;100244.38;5431189;26;20434;-77
2024/04/11 00:08:35;;;;;;;8.77;5.28;;;;;;;9.12;70.09;100245.00;5437723;26;20498;-78
2024/04/11 00:11:00;;;;;;;7.25;5.07;;;;;;;9.09;69.99;100246.22;5438110;26;20341;-78
2024/04/11 00:13:25;;;;;;;10.13;4.95;;;;;;;8.99;70.05;100229.84;5443293;26;20081;-77
2024/04/11 00:15:53;;;;;;;8.23;5.03;;;;;;;9.00;69.88;100236.78;5439832;26;20010;-77
2024/04/11 00:18:21;;;;;;;10.73;5.70;;;;;;;8.94;70.09;100240.28;5444162;26;20072;-77
2024/04/11 00:20:46;;;;;;;10.02;7.20;;;;;;;8.97;70.20;100234.53;5426135;26;20011;-77
2024/04/11 00:23:11;;;;;;;7.50;5.40;;;;;;;8.79;70.37;100216.50;5438926;26;20435;-77
2024/04/11 00:25:37;;;;;;;10.45;5.60;;;;;;;8.94;70.02;100243.75;5434818;26;20028;-77
2024/04/11 00:28:02;;;;;;;8.23;5.03;;;;;;;8.88;70.35;100233.94;5440738;26;20319;-77
2024/04/11 00:30:27;;;;;;;11.20;5.95;;;;;;;8.61;71.14;100236.72;5440306;26;20084;-76
2024/04/11 00:32:53;;;;;;;10.32;6.40;;;;;;;8.75;70.47;100219.78;5444200;26;19991;-76
2024/04/11 00:35:20;;;;;;;9.35;5.63;;;;;;;8.88;70.84;100227.78;5438945;26;20014;-77
2024/04/11 00:37:48;;;;;;;10.80;5.43;;;;;;;8.87;70.29;100224.28;5432822;26;20013;-77
2024/04/11 00:40:14;;;;;;;8.60;5.10;;;;;;;8.74;70.28;100207.47;5429681;26;19999;-76
2024/04/11 00:42:40;;;;;;;12.40;5.45;;;;;;;8.82;70.42;100221.41;5442199;26;20331;-77
2024/04/11 00:45:07;;;;;;;9.00;4.70;;;;;;;8.91;70.12;100219.38;5442714;26;20014;-77
2024/04/11 00:47:33;;;;;;;11.23;5.18;;;;;;;8.89;70.39;100219.56;5434117;26;20729;-77
2024/04/11 00:49:59;;;;;;;10.48;5.85;;;;;;;8.73;70.41;100213.84;5444970;26;20002;-77
2024/04/11 00:52:25;;;;;;;7.95;5.55;;;;;;;8.59;70.85;100218.31;5437676;26;20010;-77
2024/04/11 00:54:51;;;;;;;7.47;5.47;;;;;;;8.84;70.69;100208.75;5433089;26;20044;-77
2024/04/11 00:57:17;;;;;;;10.18;5.63;;;;;;;8.78;70.28;100217.50;5440836;26;20388;-77
2024/04/11 00:59:43;;;;;;;11.90;5.38;;;;;;;8.66;70.24;100195.19;5444289;26;20017;-77
2024/04/11 01:02:10;;;;;;;9.10;5.30;;;;;;;8.82;70.07;100221.41;5436466;26;20035;-77
2024/04/11 01:04:36;;;;;;;10.50;5.50;;;;;;;8.82;69.72;100229.38;5439381;26;20054;-77
2024/04/11 01:07:10;;;;;;;10.40;5.10;;;;;;;8.79;70.37;100224.50;5438164;26;20489;-77
2024/04/11 01:09:42;;;;;;;6.82;5.30;;;;;;;8.76;69.88;100229.38;5441237;26;20003;-78
2024/04/11 01:12:07;;;;;;;11.48;5.75;;;;;;;8.71;70.11;100223.88;5448312;26;20446;-78
2024/04/11 01:14:33;;;;;;;8.68;5.82;;;;;;;8.80;69.71;100231.44;5436610;26;20068;-77
2024/04/11 01:16:58;;;;;;;7.35;6.05;;;;;;;8.64;69.92;100223.84;5451900;26;20014;-78
2024/04/11 01:19:23;;;;;;;11.40;5.65;;;;;;;8.77;70.25;100231.03;5452816;26;20006;-78
2024/04/11 01:21:49;;;;;;;10.27;5.07;;;;;;;8.63;70.23;100230.19;5443359;26;20000;-77
2024/04/11 01:24:15;;;;;;;17.13;5.78;;;;;;;8.70;70.33;100228.38;5443607;26;20068;-78
2024/04/11 01:26:40;;;;;;;7.57;4.95;;;;;;;8.60;69.92;100217.31;5439495;26;20000;-77
2024/04/11 01:29:07;;;;;;;8.02;5.90;;;;;;;8.61;70.09;100226.91;5444442;26;20431;-78
2024/04/11 01:31:33;;;;;;;6.75;5.07;;;;;;;8.57;70.06;100212.38;5439439;26;20002;-77
2024/04/11 01:33:58;;;;;;;9.23;5.32;;;;;;;8.56;70.17;100229.34;5443206;26;19995;-77
2024/04/11 01:36:24;;;;;;;7.93;5.85;;;;;;;8.60;69.91;100232.44;5445474;26;19999;-77
2024/04/11 01:38:50;;;;;;;5.65;4.90;;;;;;;8.60;69.86;100230.63;5439336;26;20330;-77
2024/04/11 01:41:15;;;;;;;13.32;6.28;;;;;;;8.57;69.91;100227.50;5445477;26;20088;-76
2024/04/11 01:43:40;;;;;;;7.95;5.03;;;;;;;8.53;70.00;100228.94;5442138;26;20591;-77
2024/04/11 01:46:07;;;;;;;7.53;4.50;;;;;;;8.40;69.99;100216.44;5444200;26;20006;-77
2024/04/11 01:48:33;;;;;;;7.22;5.50;;;;;;;8.48;70.09;100229.53;5441759;26;20011;-77
2024/04/11 01:50:58;;;;;;;8.88;5.65;;;;;;;8.37;70.19;100221.31;5445345;26;20004;-77
2024/04/11 01:53:23;;;;;;;9.27;4.95;;;;;;;8.41;69.70;100223.38;5441107;26;20015;-77
2024/04/11 01:55:49;;;;;;;7.53;4.60;;;;;;;8.44;69.81;100222.16;5446739;26;20037;-77
2024/04/11 01:58:17;;;;;;;6.13;4.97;;;;;;;8.35;70.16;100210.88;5452215;26;20362;-77
2024/04/11 02:00:43;;;;;;;14.00;5.18;;;;;;;8.45;70.18;100219.31;5438380;26;20037;-77
2024/04/11 02:03:10;;;;;;;9.23;5.47;;;;;;;8.44;69.80;100212.34;5438300;26;20044;-78
2024/04/11 02:05:35;;;;;;;9.98;5.43;;;;;;;8.37;69.63;100211.50;5445924;26;20660;-78
2024/04/11 02:08:04;;;;;;;7.93;4.95;;;;;;;8.44;69.91;100219.50;5443510;26;20003;-78
2024/04/11 02:10:29;;;;;;;7.53;4.80;;;;;;;8.34;69.92;100211.91;5440576;26;20009;-77
2024/04/11 02:12:56;;;;;;;7.32;5.50;;;;;;;8.45;69.94;100221.16;5444238;26;19995;-77
2024/04/11 02:15:23;;;;;;;9.35;5.38;;;;;;;8.23;69.71;100210.59;5433696;26;19991;-77
2024/04/11 02:17:49;;;;;;;7.05;5.15;;;;;;;8.31;69.65;100230.94;5432049;26;19999;-77
2024/04/11 02:20:16;;;;;;;9.98;5.40;;;;;;;8.37;69.98;100231.97;5436983;26;20065;-77
2024/04/11 02:22:43;;;;;;;6.97;5.15;;;;;;;8.26;69.95;100225.38;5441061;26;20355;-77
2024/04/11 02:25:09;;;;;;;12.07;5.50;;;;;;;8.28;69.79;100233.97;5438357;26;20006;-77
2024/04/11 02:27:35;;;;;;;10.60;4.93;;;;;;;8.42;69.52;100241.00;5426610;26;20013;-77
2024/04/11 02:30:00;;;;;;;7.93;4.90;;;;;;;8.35;69.56;100234.00;5432673;26;19998;-77
2024/04/11 02:32:27;;;;;;;7.63;5.68;;;;;;;8.26;69.76;100225.38;5444489;26;20375;-77
2024/04/11 02:34:52;;;;;;;7.95;4.72;;;;;;;8.39;69.14;100235.25;5435475;26;20034;-77
2024/04/11 02:37:18;;;;;;;11.00;5.30;;;;;;;8.18;69.68;100229.03;5425421;26;19992;-77
2024/04/11 02:39:44;;;;;;;12.25;5.32;;;;;;;8.17;69.54;100240.66;5440407;26;19995;-77
2024/04/11 02:42:10;;;;;;;7.85;4.95;;;;;;;8.19;69.66;100243.16;5436917;26;19995;-77
2024/04/11 02:44:35;;;;;;;10.25;5.03;;;;;;;8.12;69.47;100235.16;5433251;26;19995;-77
2024/04/11 02:47:01;;;;;;;9.70;4.75;;;;;;;8.00;69.97;100227.91;5433512;26;20035;-77
2024/04/11 02:49:27;;;;;;;7.35;5.82;;;;;;;8.02;69.83;100237.31;5435840;26;19999;-77
2024/04/11 02:51:53;;;;;;;13.75;5.35;;;;;;;7.99;69.97;100232.44;5449182;26;20006;-77
2024/04/11 02:54:19;;;;;;;7.10;5.30;;;;;;;8.08;69.83;100249.03;5441991;26;20002;-78
2024/04/11 02:56:45;;;;;;;10.50;5.22;;;;;;;8.09;69.82;100261.28;5439919;26;20007;-77
2024/04/11 02:59:11;;;;;;;10.77;5.50;;;;;;;8.04;69.83;100263.72;5431414;26;20017;-78
2024/04/11 03:01:37;;;;;;;7.32;4.75;;;;;;;8.09;69.38;100263.94;5444334;26;20008;-78
2024/04/11 03:04:02;;;;;;;9.00;4.65;;;;;;;8.09;69.67;100266.59;5439278;26;20009;-78
2024/04/11 03:06:28;;;;;;;8.88;5.03;;;;;;;7.99;69.50;100251.03;5445334;26;19995;-77
2024/04/11 03:08:56;;;;;;;7.95;4.25;;;;;;;7.97;69.51;100268.19;5428816;26;20003;-78
2024/04/11 03:11:25;;;;;;;7.60;4.45;;;;;;;7.94;70.02;100263.25;5438372;26;20009;-78
2024/04/11 03:13:57;;;;;;;5.78;4.50;;;;;;;8.00;69.79;100263.28;5431713;26;20004;-78
2024/04/11 03:16:27;;;;;;;5.43;4.75;;;;;;;7.95;69.69;100272.91;5441960;26;20010;-78
2024/04/11 03:18:53;;;;;;;9.43;4.95;;;;;;;7.98;69.34;100267.16;5439734;26;19999;-78
2024/04/11 03:21:19;;;;;;;7.10;4.00;;;;;;;7.77;69.92;100260.13;5433690;26;20309;-78
2024/04/11 03:23:45;;;;;;;9.25;4.22;;;;;;;7.75;69.76;100232.91;5437279;26;20021;-78
2024/04/11 03:26:10;;;;;;;6.25;4.30;;;;;;;7.83;69.85;100264.63;5438298;26;20015;-78
2024/04/11 03:28:36;;;;;;;5.97;4.35;;;;;;;7.84;69.76;100260.16;5441687;26;19995;-78
2024/04/11 03:31:04;;;;;;;5.68;4.57;;;;;;;7.88;69.46;100251.59;5442981;26;20018;-78
2024/04/11 03:33:30;;;;;;;5.68;4.28;;;;;;;7.74;69.23;100236.56;5433475;26;20003;-79
2024/04/11 03:35:57;;;;;;;6.28;4.50;;;;;;;7.62;70.11;100262.06;5441894;26;20021;-78
2024/04/11 03:38:26;;;;;;;4.80;3.65;;;;;;;7.83;69.17;100258.50;5430611;26;20006;-77
2024/04/11 03:40:58;;;;;;;18.83;4.55;;;;;;;7.09;70.92;100260.84;5438478;26;20049;-78
2024/04/11 03:43:27;;;;;;;6.30;4.13;;;;;;;7.36;71.49;100265.34;5437980;26;19996;-78
2024/04/11 03:45:53;;;;;;;10.20;4.45;;;;;;;7.71;69.96;100260.88;5437739;26;20021;-78
2024/04/11 03:48:19;;;;;;;6.05;3.88;;;;;;;7.81;69.43;100265.84;5441363;26;20386;-77
2024/04/11 03:50:45;;;;;;;5.40;4.43;;;;;;;7.75;69.56;100261.31;5427107;26;20027;-78
2024/04/11 03:53:11;;;;;;;7.47;4.00;;;;;;;7.69;69.58;100262.09;5448195;26;20003;-78
2024/04/11 03:55:44;;;;;;;6.25;3.38;;;;;;;7.64;69.58;100269.84;5449297;26;20435;-78
2024/04/11 03:58:09;;;;;;;7.07;3.60;;;;;;;7.69;69.31;100267.44;5447332;26;20018;-78
2024/04/11 04:00:35;;;;;;;6.78;3.83;;;;;;;7.75;69.37;100270.13;5443885;26;20019;-77
2024/04/11 04:03:01;;;;;;;7.10;4.60;;;;;;;7.69;69.56;100275.41;5441100;26;20010;-78
2024/04/11 04:05:27;;;;;;;7.18;4.00;;;;;;;7.68;69.58;100263.94;5441481;26;20011;-77
2024/04/11 04:07:52;;;;;;;7.90;4.72;;;;;;;7.54;69.28;100247.09;5447454;26;20377;-77
2024/04/11 04:10:20;;;;;;;8.10;4.43;;;;;;;7.68;69.59;100273.75;5442299;26;20009;-77
2024/04/11 04:12:45;;;;;;;5.20;4.50;;;;;;;7.64;69.41;100267.19;5445279;26;20405;-77
2024/04/11 04:15:11;;;;;;;10.90;5.25;;;;;;;7.49;69.93;100273.41;5441423;26;20002;-77
2024/04/11 04:17:36;;;;;;;7.60;5.32;;;;;;;7.30;70.51;100273.25;5429596;26;20040;-77
2024/04/11 04:20:03;;;;;;;8.80;5.32;;;;;;;7.40;70.70;100266.59;5438081;26;20459;-77
2024/04/11 04:22:29;;;;;;;6.35;4.18;;;;;;;7.51;70.41;100265.25;5431074;26;19995;-76
2024/04/11 04:24:55;;;;;;;6.75;4.15;;;;;;;7.32;70.74;100264.09;5436563;26;20021;-76
2024/04/11 04:27:21;;;;;;;6.25;5.65;;;;;;;7.48;70.66;100257.66;5436373;26;20066;-77
2024/04/11 04:29:52;;;;;;;8.68;4.78;;;;;;;7.54;70.73;100257.72;5428164;26;20058;-76
2024/04/11 04:32:18;;;;;;;12.15;4.75;;;;;;;7.52;70.29;100259.75;5441811;26;20003;-77
2024/04/11 04:34:47;;;;;;;6.15;4.47;;;;;;;7.49;70.45;100254.81;5436768;26;20079;-77
2024/04/11 04:37:13;;;;;;;8.13;5.00;;;;;;;7.29;71.18;100259.19;5433841;26;20031;-76
2024/04/11 04:39:41;;;;;;;6.68;4.68;;;;;;;7.48;70.50;100263.81;5442821;26;20408;-75
2024/04/11 04:42:07;;;;;;;8.48;4.28;;;;;;;7.40;71.48;100260.47;5443486;26;20016;-76
2024/04/11 04:44:33;;;;;;;7.03;4.70;;;;;;;7.34;71.36;100269.19;5444818;26;20018;-76
2024/04/11 04:47:03;;;;;;;7.47;4.85;;;;;;;7.37;71.07;100266.16;5430992;26;19999;-77
2024/04/11 04:49:30;;;;;;;7.93;4.40;;;;;;;7.46;70.81;100254.38;5441390;26;20005;-76
2024/04/11 04:51:55;;;;;;;8.35;4.32;;;;;;;7.50;71.49;100264.44;5440387;26;20009;-77
2024/04/11 04:54:21;;;;;;;7.78;4.30;;;;;;;7.26;71.51;100261.38;5442074;26;20006;-77
2024/04/11 04:56:46;;;;;;;7.18;4.72;;;;;;;7.63;71.01;100276.16;5450476;26;20044;-77
2024/04/11 04:59:14;;;;;;;8.27;3.95;;;;;;;7.45;71.61;100268.66;5464483;26;20014;-77
2024/04/11 05:01:40;;;;;;;8.52;4.57;;;;;;;7.72;71.11;100272.34;5434034;26;20018;-76
2024/04/11 05:04:06;;;;;;;7.85;4.57;;;;;;;7.68;70.83;100266.59;5449137;26;20002;-77
2024/04/11 05:06:32;;;;;;;8.20;5.05;;;;;;;7.77;70.70;100278.72;5438703;26;20451;-76
2024/04/11 05:08:57;;;;;;;7.65;4.68;;;;;;;7.79;70.60;100275.84;5433102;26;20027;-77
2024/04/11 05:11:25;;;;;;;9.93;4.28;;;;;;;7.61;71.18;100280.84;5451036;26;20060;-77
2024/04/11 05:13:51;;;;;;;6.75;4.90;;;;;;;7.77;71.10;100280.53;5447227;26;20383;-77
2024/04/11 05:16:20;;;;;;;8.57;4.03;;;;;;;7.65;71.02;100279.44;5451493;26;19999;-76
2024/04/11 05:18:47;;;;;;;8.50;4.20;;;;;;;7.67;71.65;100272.09;5450590;26;20001;-77
2024/04/11 05:21:19;;;;;;;9.80;5.13;;;;;;;7.66;71.29;100289.06;5448126;26;20048;-77
2024/04/11 05:23:45;;;;;;;6.45;3.63;;;;;;;7.70;71.29;100271.72;5442317;26;20492;-76
2024/04/11 05:26:14;;;;;;;5.68;3.97;;;;;;;7.80;71.55;100285.47;5443637;26;20014;-77
2024/04/11 05:28:44;;;;;;;6.45;4.00;;;;;;;7.70;71.07;100283.16;5441230;26;19990;-77
2024/04/11 05:31:25;;;;;;;8.68;4.40;;;;;;;7.62;71.89;100275.34;5439849;26;20521;-77
2024/04/11 05:33:53;;;;;;;8.48;4.45;;;;;;;7.77;71.97;100286.69;5439958;26;19995;-76
2024/04/11 05:36:25;;;;;;;6.00;4.47;;;;;;;7.75;71.85;100279.94;5440245;26;20443;-79
2024/04/11 05:38:51;;;;;;;8.25;4.20;;;;;;;7.79;72.48;100281.16;5436389;26;20009;-78
2024/04/11 05:41:17;;;;;;;6.43;4.65;;;;;;;7.93;72.27;100285.56;5454142;26;20026;-78
2024/04/11 05:43:43;;;;;;;6.55;3.60;;;;;;;7.79;71.89;100259.91;5483991;26;20003;-77
2024/04/11 05:46:18;;;;;;;7.85;4.28;;;;;;;7.74;72.60;100271.13;5491452;26;20028;-78
2024/04/11 05:48:44;;;;;;;9.38;4.88;;;;;;;7.84;72.49;100268.94;5451871;26;19999;-79
2024/04/11 05:51:10;;;;;;;7.35;4.55;;;;;;;7.83;73.25;100282.41;5432781;26;20012;-78
2024/04/11 05:53:37;;;;;;;9.30;3.95;;;;;;;7.73;73.71;100272.16;5446769;26;19999;-78
2024/04/11 05:56:07;;;;;;;8.70;4.95;;;;;;;7.56;74.74;100268.13;5442955;26;19994;-78
2024/04/11 05:58:33;;;;;;;7.93;4.35;;;;;;;7.58;74.64;100252.81;5438088;26;20014;-78
2024/04/11 06:01:01;;;;;;;7.28;4.72;;;;;;;7.84;73.30;100260.94;5449763;26;20003;-78
2024/04/11 06:03:28;;;;;;;7.97;4.10;;;;;;;7.85;73.61;100248.50;5444973;26;19999;-77
2024/04/11 06:05:54;;;;;;;10.60;4.72;;;;;;;7.49;75.65;100243.38;5453445;26;20675;-77
2024/04/11 06:08:22;;;;;;;5.72;4.28;;;;;;;7.92;74.85;100258.16;5453098;26;19995;-77
2024/04/11 06:10:50;;;;;;;5.40;3.90;;;;;;;7.91;73.65;100232.56;5453345;26;20063;-77
2024/04/11 06:13:17;;;;;;;5.90;4.43;;;;;;;7.97;74.54;100250.38;5451688;26;20013;-77
2024/04/11 06:15:43;;;;;;;7.70;4.30;;;;;;;7.93;74.77;100233.19;5453396;26;20026;-77
2024/04/11 06:18:09;;;;;;;6.47;3.90;;;;;;;8.22;73.41;100224.94;5452810;26;20454;-77
2024/04/11 06:20:38;;;;;;;12.40;5.22;;;;;;;8.50;73.25;100246.13;5451707;26;20123;-77
2024/04/11 06:23:15;;;;;;;8.32;4.63;;;;;;;8.59;73.03;100244.94;5453497;26;20375;-77
2024/04/11 06:25:42;;;;;;;10.55;4.85;;;;;;;8.29;75.96;100246.28;5452315;26;20002;-77
2024/04/11 06:28:07;;;;;;;7.20;4.60;;;;;;;8.73;72.84;100235.97;5453048;26;20064;-76
2024/04/11 06:30:38;;;;;;;10.25;4.80;;;;;;;8.61;74.25;100244.72;5453115;26;20015;-77
2024/04/11 06:33:08;;;;;;;9.70;5.47;;;;;;;8.32;76.92;100233.38;5453295;26;19999;-75
2024/04/11 06:35:36;;;;;;;5.97;4.63;;;;;;;8.65;75.21;100245.97;5450835;26;20006;-77
2024/04/11 06:38:05;;;;;;;9.93;4.95;;;;;;;8.63;75.72;100227.53;5451696;26;20479;-77
2024/04/11 06:40:34;;;;;;;4.72;3.95;;;;;;;8.79;74.62;100240.47;5434097;26;19999;-77
2024/04/11 06:43:01;;;;;;;9.38;4.72;;;;;;;8.74;75.20;100250.88;5442696;26;19999;-77
2024/04/11 06:45:27;;;;;;;6.50;4.13;;;;;;;8.96;74.69;100248.88;5431318;26;20017;-76
2024/04/11 06:47:53;;;;;;;9.85;4.35;;;;;;;9.33;71.87;100248.25;5435742;26;20005;-76
2024/04/11 06:50:22;;;;;;;6.35;4.10;;;;;;;9.37;71.80;100248.69;5436120;26;20003;-76
2024/04/11 06:52:48;;;;;;;13.23;3.95;;;;;;;9.48;71.02;100246.19;5448480;26;20040;-76
2024/04/11 06:55:14;;;;;;;13.48;4.40;;;;;;;9.28;72.44;100253.41;5449895;26;19995;-76
2024/04/11 06:57:44;;;;;;;7.55;3.80;;;;;;;9.29;72.50;100264.88;5448327;26;20007;-76
2024/04/11 07:00:26;;;;;;;7.85;4.00;;;;;;;9.13;74.14;100267.94;5449958;26;19999;-76
2024/04/11 07:02:54;;;;;;;6.28;3.47;;;;;;;9.51;71.25;100277.78;5450280;26;19996;-76
2024/04/11 07:05:22;;;;;;;10.48;4.53;;;;;;;9.69;70.48;100269.16;5450022;26;20010;-76
2024/04/11 07:07:54;;;;;;;12.45;4.15;;;;;;;9.41;72.96;100263.22;5446811;26;20001;-76
2024/04/11 07:10:32;;;;;;;8.85;3.67;;;;;;;9.73;72.06;100281.84;5446573;26;20006;-76
2024/04/11 07:12:59;;;;;;;4.53;3.38;;;;;;;9.56;71.55;100271.81;5451951;26;20002;-76
2024/04/11 07:15:29;;;;;;;4.80;3.10;;;;;;;9.95;70.84;100286.94;5470405;26;20015;-77
2024/04/11 07:17:58;;;;;;;5.40;3.30;;;;;;;10.00;70.41;100279.13;5471985;26;20048;-77
2024/04/11 07:20:30;;;;;;;5.40;3.13;;;;;;;10.23;69.83;100295.50;5454547;26;19998;-77
2024/04/11 07:22:58;;;;;;;6.80;3.45;;;;;;;10.16;70.70;100295.50;5446977;26;20520;-77
2024/04/11 07:25:25;;;;;;;9.73;3.85;;;;;;;10.22;70.14;100270.66;5435076;26;20013;-77
2024/04/11 07:27:51;;;;;;;4.97;3.17;;;;;;;10.31;69.72;100266.72;5440784;26;22181;-77
2024/04/11 07:30:20;;;;;;;5.68;2.90;;;;;;;10.43;69.32;100288.22;5448226;26;20071;-76
2024/04/11 07:32:46;;;;;;;9.90;2.83;;;;;;;10.52;68.53;100278.97;5438438;26;19999;-76
2024/04/11 07:35:15;;;;;;;4.55;2.65;;;;;;;10.57;67.30;100279.16;5448564;26;20009;-76
2024/04/11 07:37:44;;;;;;;9.18;3.20;;;;;;;10.67;67.19;100292.00;5449117;26;20626;-76
2024/04/11 07:40:27;;;;;;;6.47;2.60;;;;;;;10.58;66.34;100280.78;5447638;26;19999;-76
2024/04/11 07:42:55;;;;;;;6.75;2.42;;;;;;;10.83;65.27;100286.19;5449374;26;20002;-76
2024/04/11 07:45:25;;;;;;;7.28;2.40;;;;;;;10.78;65.58;100299.34;5449204;26;20316;-77
2024/04/11 07:47:56;;;;;;;4.80;1.98;;;;;;;10.79;64.55;100268.97;5448239;26;19999;-76
2024/04/11 07:50:23;;;;;;;6.45;2.67;;;;;;;10.80;64.68;100265.25;5449221;26;20452;-76
2024/04/11 07:52:48;;;;;;;5.40;2.00;;;;;;;11.07;64.51;100296.91;5448696;26;20007;-76
2024/04/11 07:55:14;;;;;;;3.10;2.15;;;;;;;11.17;63.71;100304.44;5448868;26;19995;-76
2024/04/11 07:57:42;;;;;;;4.53;1.85;;;;;;;11.09;63.83;100296.69;5435231;26;20005;-76
2024/04/11 08:00:20;;;;;;;3.72;2.60;;;;;;;11.18;nan;100296.19;5444778;26;19991;-77
2024/04/11 08:02:48;;;;;;;6.35;2.33;;;;;;;11.21;62.73;100298.44;5442979;26;20363;-76
2024/04/11 08:05:14;;;;;;;5.53;2.22;;;;;;;11.24;62.66;100294.53;5447407;26;19994;-76
2024/04/11 08:07:42;;;;;;;3.83;1.60;;;;;;;11.28;62.34;100295.72;5448559;26;19999;-77
2024/04/11 08:10:13;;;;;;;5.53;2.15;;;;;;;11.32;62.41;100297.75;5448857;26;20560;-76
2024/04/11 08:12:40;;;;;;;5.68;1.98;;;;;;;11.41;60.87;100298.31;5449355;26;19999;-76
2024/04/11 08:15:06;;;;;;;4.70;2.03;;;;;;;11.45;61.31;100290.66;5447225;26;20003;-76
2024/04/11 08:17:32;;;;;;;7.32;2.03;;;;;;;11.63;60.74;100294.19;5446982;26;19995;-76
2024/04/11 08:19:58;;;;;;;3.20;2.20;;;;;;;11.57;60.96;100296.94;5428698;26;20024;-76
2024/04/11 08:22:25;;;;;;;4.88;2.15;;;;;;;11.50;60.76;100286.31;5446577;26;20001;-76
2024/04/11 08:24:50;;;;;;;5.43;2.25;;;;;;;11.48;61.13;100303.59;5448827;26;19995;-76
2024/04/11 08:27:16;;;;;;;5.95;2.67;;;;;;;11.49;59.58;100290.00;5448367;26;20067;-77
2024/04/11 08:29:41;;;;;;;3.55;1.50;;;;;;;11.62;59.50;100319.28;5444048;26;20000;-76
2024/04/11 08:32:07;;;;;;;8.30;2.22;;;;;;;11.63;59.01;100323.63;5448575;26;20017;-76
2024/04/11 08:34:33;;;;;;;2.55;1.70;;;;;;;11.56;58.82;100311.34;5448387;26;19999;-77
2024/04/11 08:36:58;;;;;;;5.90;2.17;;;;;;;11.63;59.18;100320.94;5448192;26;20018;-76
2024/04/11 08:39:24;;;;;;;6.38;2.10;;;;;;;11.63;59.12;100336.16;5448368;26;20084;-77
2024/04/11 08:41:51;;;;;;;4.85;1.73;;;;;;;11.55;59.32;100337.28;5448484;26;19999;-77
2024/04/11 08:44:18;;;;;;;5.25;1.90;;;;;;;11.44;59.20;100321.13;5443868;26;19991;-76
2024/04/11 08:46:43;;;;;;;2.67;1.67;;;;;;;11.54;58.69;100348.16;5445621;26;19999;-76
2024/04/11 08:49:10;;;;;;;5.72;2.20;;;;;;;11.45;57.58;100331.56;5443507;26;20072;-76
2024/04/11 08:51:39;;;;;;;4.65;1.65;;;;;;;11.50;58.68;100355.81;5447277;26;20015;-76
2024/04/11 08:54:07;;;;;;;3.90;1.70;;;;;;;11.16;58.06;100335.69;5425206;26;19999;-76
2024/04/11 08:56:32;;;;;;;2.72;1.98;;;;;;;11.38;57.29;100352.19;5448457;26;20005;-76
2024/04/11 08:58:58;;;;;;;7.07;2.38;;;;;;;11.37;57.29;100345.22;5470142;20;20592;-77
2024/04/11 09:01:24;;;;;;;7.47;1.80;;;;;;;11.46;56.87;100367.16;5476168;26;20453;-77
2024/04/11 09:03:49;;;;;;;9.52;1.75;;;;;;;11.26;57.84;100330.69;5477844;26;20400;-77
2024/04/11 09:06:23;;;;;;;4.95;1.95;;;;;;;11.62;57.07;100363.97;5445905;26;20011;-77
2024/04/11 09:08:50;;;;;;;8.93;1.92;;;;;;;11.54;58.06;100362.38;5447513;26;20006;-77
2024/04/11 09:11:15;;;;;;;4.68;2.40;;;;;;;11.57;57.22;100375.31;5448777;26;20003;-77
2024/04/11 09:13:41;;;;;;;4.28;1.88;;;;;;;11.57;57.68;100369.13;5445317;26;20067;-77
2024/04/11 09:16:06;;;;;;;4.78;2.20;;;;;;;11.70;57.79;100369.88;5445007;26;20051;-77
2024/04/11 09:18:34;;;;;;;2.35;1.23;;;;;;;11.63;58.91;100373.59;5448156;26;19995;-77
2024/04/11 09:21:05;;;;;;;4.65;1.98;;;;;;;11.54;58.22;100372.22;5449233;26;20406;-78
2024/04/11 09:23:43;;;;;;;5.97;2.22;;;;;;;11.51;58.16;100378.84;5447236;26;20006;-77
2024/04/11 09:26:10;;;;;;;6.60;2.30;;;;;;;11.60;57.69;100369.50;5449352;26;20052;-78
2024/04/11 09:28:37;;;;;;;4.53;2.00;;;;;;;11.71;57.25;100374.19;5445587;26;19994;-77
2024/04/11 09:31:04;;;;;;;3.40;1.92;;;;;;;11.89;58.03;100378.78;5448511;26;20018;-77
2024/04/11 09:33:31;;;;;;;5.00;2.15;;;;;;;11.71;58.18;100371.50;5451561;26;20006;-77
2024/04/11 09:36:03;;;;;;;8.77;2.35;;;;;;;11.73;58.72;100374.00;5453465;26;20070;-78
2024/04/11 09:38:29;;;;;;;7.63;1.63;;;;;;;11.71;58.59;100360.81;5453415;26;20332;-78
2024/04/11 09:40:55;;;;;;;5.97;2.50;;;;;;;11.73;58.71;100369.44;5453514;26;19999;-78
2024/04/11 09:43:27;;;;;;;5.40;2.65;;;;;;;11.77;59.19;100375.97;5390599;26;20077;-77
2024/04/11 09:45:56;;;;;;;5.78;1.90;;;;;;;11.73;58.62;100364.09;5421141;26;19999;-78
2024/04/11 09:48:25;;;;;;;11.60;3.17;;;;;;;11.67;59.23;100375.66;5420558;26;20467;-77
2024/04/11 09:50:55;;;;;;;5.70;2.08;;;;;;;11.79;58.93;100381.97;5450653;26;19994;-77
2024/04/11 09:53:26;;;;;;;5.60;2.22;;;;;;;11.75;58.87;100380.72;5421388;26;20010;-77
2024/04/11 09:56:05;;;;;;;4.43;1.92;;;;;;;11.85;58.43;100382.94;5452328;26;19999;-77
2024/04/11 09:58:38;;;;;;;9.38;2.53;;;;;;;11.74;58.71;100365.75;5420501;26;19999;-78
2024/04/11 10:01:30;;;;;;;8.77;2.78;;;;;;;11.87;58.55;100376.31;5420921;26;20459;-77
2024/04/11 10:04:04;;;;;;;7.82;2.47;;;;;;;11.92;58.63;100368.47;5444519;26;20006;-78
2024/04/11 10:06:30;;;;;;;11.68;2.47;;;;;;;12.13;60.47;100385.13;5438275;26;20003;-77
2024/04/11 10:09:11;;;;;;;13.05;2.50;;;;;;;12.06;59.15;100385.19;5450704;26;20427;-77
2024/04/11 10:11:42;;;;;;;4.50;1.90;;;;;;;12.06;59.16;100379.06;5452489;26;20026;-78
2024/04/11 10:14:14;;;;;;;5.78;2.33;;;;;;;12.15;59.34;100361.63;5452438;26;19999;-78
2024/04/11 10:16:48;;;;;;;6.15;1.92;;;;;;;12.10;59.32;100359.63;5452289;26;20389;-77
2024/04/11 10:19:21;;;;;;;11.15;2.53;;;;;;;12.25;60.04;100370.81;5452112;26;19995;-78
2024/04/11 10:21:49;;;;;;;10.80;2.30;;;;;;;12.13;59.25;100361.03;5420430;26;19994;-77
2024/04/11 10:24:16;;;;;;;6.68;2.08;;;;;;;12.18;59.13;100369.25;5421145;26;19997;-78
2024/04/11 10:26:50;;;;;;;5.35;2.28;;;;;;;12.18;59.23;100378.09;5421472;26;19991;-77
2024/04/11 10:29:19;;;;;;;4.68;2.08;;;;;;;12.25;58.60;100356.59;5452924;26;20440;-77
2024/04/11 10:31:47;;;;;;;9.85;2.75;;;;;;;12.26;60.35;100364.41;5392917;26;20071;-78
2024/04/11 10:34:19;;;;;;;4.90;2.38;;;;;;;12.26;60.20;100360.91;5421553;26;20013;-78
2024/04/11 10:36:54;;;;;;;8.60;2.40;;;;;;;12.32;59.34;100358.16;5451359;26;19999;-77
2024/04/11 10:39:21;;;;;;;3.78;1.85;;;;;;;12.49;59.68;100371.78;5452567;26;20088;-77
2024/04/11 10:41:51;;;;;;;6.90;2.10;;;;;;;12.59;59.24;100359.50;5449848;26;20465;-78
2024/04/11 10:44:17;;;;;;;7.25;2.85;;;;;;;12.58;60.35;100370.47;5390079;26;19999;-77
2024/04/11 10:46:43;;;;;;;7.75;2.90;;;;;;;12.64;60.02;100370.38;5451907;26;20402;-78
2024/04/11 10:49:26;;;;;;;5.32;2.20;;;;;;;12.69;60.16;100358.97;5419531;26;19994;-78
2024/04/11 10:51:51;;;;;;;3.28;2.38;;;;;;;12.65;59.79;100363.13;5420370;26;20454;-77
2024/04/11 10:54:17;;;;;;;6.15;2.28;;;;;;;12.75;58.76;100361.56;5451922;26;20397;-78
2024/04/11 10:56:44;;;;;;;4.70;2.25;;;;;;;12.71;59.15;100352.34;5450506;26;19995;-78
2024/04/11 10:59:22;;;;;;;4.95;1.65;;;;;;;12.82;58.34;100356.13;5419556;26;20026;-77
2024/04/11 11:02:02;;;;;;;5.90;1.88;;;;;;;12.76;59.19;100362.38;5418961;26;20461;-78
2024/04/11 11:04:30;;;;;;;5.25;2.88;;;;;;;12.80;58.44;100350.16;5451686;26;20018;-77
2024/04/11 11:06:59;;;;;;;6.38;2.15;;;;;;;12.91;58.91;100348.59;5418604;26;19991;-78
2024/04/11 11:09:27;;;;;;;7.47;2.45;;;;;;;12.95;58.99;100352.47;5420062;26;20490;-77
2024/04/11 11:11:54;;;;;;;5.03;1.80;;;;;;;13.02;57.87;100347.84;5449879;26;20154;-77
2024/04/11 11:14:24;;;;;;;8.20;1.90;;;;;;;12.99;58.22;100337.56;5450348;26;19998;-77
2024/04/11 11:16:57;;;;;;;5.22;2.05;;;;;;;13.11;57.71;100347.31;5418513;26;19999;-78
2024/04/11 11:19:23;;;;;;;4.05;1.90;;;;;;;13.11;58.02;100351.84;5419226;26;20017;-77
2024/04/11 11:21:55;;;;;;;5.10;2.00;;;;;;;13.05;57.76;100323.28;5419280;26;19999;-78
2024/04/11 11:24:25;;;;;;;4.68;1.83;;;;;;;13.31;57.08;100341.66;5460270;26;20002;-77
2024/04/11 11:26:59;;;;;;;7.05;2.08;;;;;;;13.24;58.10;100331.03;5442245;26;19999;-78
2024/04/11 11:29:26;;;;;;;3.35;1.77;;;;;;;13.31;57.90;100322.88;5403306;26;20010;-78
2024/04/11 11:32:01;;;;;;;8.02;1.80;;;;;;;13.44;57.52;100339.59;5452246;26;20002;-78